sensor_id;sensor_type;location;lat;lon;timestamp;P1;durP1;ratioP1;P2;durP2;ratioP2
28304;SDS011;15569;42.652;23.040;2023-03-14T00:02:08;48.40;;;18.63;;
28304;SDS011;15569;42.652;23.040;2023-03-14T00:04:34;42.30;;;18.08;;
28304;SDS011;15569;42.652;23.040;2023-03-14T00:07:00;41.63;;;17.38;;
28304;SDS011;15569;42.652;23.040;2023-03-14T00:09:26;39.25;;;16.63;;
28304;SDS011;15569;42.652;23.040;2023-03-14T00:11:54;33.95;;;15.82;;
28304;SDS011;15569;42.652;23.040;2023-03-14T00:14:20;33.20;;;16.23;;
28304;SDS011;15569;42.652;23.040;2023-03-14T00:16:45;39.03;;;16.33;;
28304;SDS011;15569;42.652;23.040;2023-03-14T00:19:11;37.28;;;16.90;;
28304;SDS011;15569;42.652;23.040;2023-03-14T00:21:37;34.90;;;15.73;;
28304;SDS011;15569;42.652;23.040;2023-03-14T00:24:02;42.65;;;16.25;;
28304;SDS011;15569;42.652;23.040;2023-03-14T00:26:27;40.67;;;16.40;;
28304;SDS011;15569;42.652;23.040;2023-03-14T00:28:53;35.83;;;16.35;;
28304;SDS011;15569;42.652;23.040;2023-03-14T00:31:19;35.45;;;15.90;;
28304;SDS011;15569;42.652;23.040;2023-03-14T00:33:44;40.40;;;16.67;;
28304;SDS011;15569;42.652;23.040;2023-03-14T00:36:11;49.83;;;19.08;;
28304;SDS011;15569;42.652;23.040;2023-03-14T00:38:39;42.00;;;17.85;;
28304;SDS011;15569;42.652;23.040;2023-03-14T00:41:06;43.95;;;20.05;;
28304;SDS011;15569;42.652;23.040;2023-03-14T00:43:33;55.40;;;21.65;;
28304;SDS011;15569;42.652;23.040;2023-03-14T00:45:59;64.55;;;25.52;;
28304;SDS011;15569;42.652;23.040;2023-03-14T00:48:25;69.13;;;24.30;;
28304;SDS011;15569;42.652;23.040;2023-03-14T00:50:50;66.93;;;26.65;;
28304;SDS011;15569;42.652;23.040;2023-03-14T00:53:16;58.00;;;24.55;;
28304;SDS011;15569;42.652;23.040;2023-03-14T00:55:42;66.40;;;25.42;;
28304;SDS011;15569;42.652;23.040;2023-03-14T00:58:09;47.63;;;19.48;;
28304;SDS011;15569;42.652;23.040;2023-03-14T01:00:35;47.97;;;19.58;;
28304;SDS011;15569;42.652;23.040;2023-03-14T01:03:01;50.75;;;21.33;;
28304;SDS011;15569;42.652;23.040;2023-03-14T01:05:26;47.15;;;20.33;;
28304;SDS011;15569;42.652;23.040;2023-03-14T01:07:52;51.72;;;22.05;;
28304;SDS011;15569;42.652;23.040;2023-03-14T01:10:17;59.22;;;21.90;;
28304;SDS011;15569;42.652;23.040;2023-03-14T01:12:43;41.08;;;19.00;;
28304;SDS011;15569;42.652;23.040;2023-03-14T01:15:08;40.75;;;18.77;;
28304;SDS011;15569;42.652;23.040;2023-03-14T01:17:34;38.60;;;17.20;;
28304;SDS011;15569;42.652;23.040;2023-03-14T01:20:03;39.50;;;19.33;;
28304;SDS011;15569;42.652;23.040;2023-03-14T01:22:29;35.42;;;15.45;;
28304;SDS011;15569;42.652;23.040;2023-03-14T01:24:55;46.25;;;18.63;;
28304;SDS011;15569;42.652;23.040;2023-03-14T01:27:20;53.60;;;21.95;;
28304;SDS011;15569;42.652;23.040;2023-03-14T01:29:46;56.33;;;23.02;;
28304;SDS011;15569;42.652;23.040;2023-03-14T01:32:12;58.00;;;19.92;;
28304;SDS011;15569;42.652;23.040;2023-03-14T01:34:38;49.78;;;20.63;;
28304;SDS011;15569;42.652;23.040;2023-03-14T01:37:03;44.20;;;19.30;;
28304;SDS011;15569;42.652;23.040;2023-03-14T01:39:29;52.78;;;22.20;;
28304;SDS011;15569;42.652;23.040;2023-03-14T01:41:54;49.22;;;20.23;;
28304;SDS011;15569;42.652;23.040;2023-03-14T01:44:20;45.38;;;21.15;;
28304;SDS011;15569;42.652;23.040;2023-03-14T01:46:45;50.15;;;21.40;;
28304;SDS011;15569;42.652;23.040;2023-03-14T01:51:59;56.10;;;22.75;;
28304;SDS011;15569;42.652;23.040;2023-03-14T01:54:37;51.67;;;23.20;;
28304;SDS011;15569;42.652;23.040;2023-03-14T01:57:25;52.47;;;21.95;;
28304;SDS011;15569;42.652;23.040;2023-03-14T02:00:04;55.88;;;22.70;;
28304;SDS011;15569;42.652;23.040;2023-03-14T02:02:36;63.10;;;23.85;;
28304;SDS011;15569;42.652;23.040;2023-03-14T02:05:03;52.85;;;22.05;;
28304;SDS011;15569;42.652;23.040;2023-03-14T02:07:51;49.40;;;21.88;;
28304;SDS011;15569;42.652;23.040;2023-03-14T02:10:19;34.60;;;17.30;;
28304;SDS011;15569;42.652;23.040;2023-03-14T02:12:47;60.35;;;24.38;;
28304;SDS011;15569;42.652;23.040;2023-03-14T02:15:14;57.88;;;24.35;;
28304;SDS011;15569;42.652;23.040;2023-03-14T02:17:43;57.53;;;25.60;;
28304;SDS011;15569;42.652;23.040;2023-03-14T02:23:06;59.60;;;25.55;;
28304;SDS011;15569;42.652;23.040;2023-03-14T02:27:59;55.72;;;25.75;;
28304;SDS011;15569;42.652;23.040;2023-03-14T02:30:26;55.17;;;22.52;;
28304;SDS011;15569;42.652;23.040;2023-03-14T02:33:03;50.67;;;21.95;;
28304;SDS011;15569;42.652;23.040;2023-03-14T02:35:31;48.60;;;23.67;;
28304;SDS011;15569;42.652;23.040;2023-03-14T02:38:01;46.13;;;23.98;;
28304;SDS011;15569;42.652;23.040;2023-03-14T02:40:32;52.13;;;23.60;;
28304;SDS011;15569;42.652;23.040;2023-03-14T02:42:57;44.53;;;22.63;;
28304;SDS011;15569;42.652;23.040;2023-03-14T02:45:31;54.20;;;26.67;;
28304;SDS011;15569;42.652;23.040;2023-03-14T02:48:01;54.08;;;27.10;;
28304;SDS011;15569;42.652;23.040;2023-03-14T02:50:31;56.20;;;26.48;;
28304;SDS011;15569;42.652;23.040;2023-03-14T02:52:59;53.45;;;25.23;;
28304;SDS011;15569;42.652;23.040;2023-03-14T02:55:24;59.35;;;26.35;;
28304;SDS011;15569;42.652;23.040;2023-03-14T02:57:51;66.32;;;33.58;;
28304;SDS011;15569;42.652;23.040;2023-03-14T03:00:17;69.00;;;29.52;;
28304;SDS011;15569;42.652;23.040;2023-03-14T03:02:44;59.88;;;23.58;;
28304;SDS011;15569;42.652;23.040;2023-03-14T03:05:09;53.58;;;23.92;;
28304;SDS011;15569;42.652;23.040;2023-03-14T03:07:34;54.80;;;23.38;;
28304;SDS011;15569;42.652;23.040;2023-03-14T03:10:00;52.20;;;20.95;;
28304;SDS011;15569;42.652;23.040;2023-03-14T03:12:25;52.05;;;22.05;;
28304;SDS011;15569;42.652;23.040;2023-03-14T03:14:51;54.13;;;23.25;;
28304;SDS011;15569;42.652;23.040;2023-03-14T03:17:16;58.40;;;25.05;;
28304;SDS011;15569;42.652;23.040;2023-03-14T03:19:42;42.40;;;20.90;;
28304;SDS011;15569;42.652;23.040;2023-03-14T03:22:08;64.35;;;23.52;;
28304;SDS011;15569;42.652;23.040;2023-03-14T03:24:33;49.17;;;22.85;;
28304;SDS011;15569;42.652;23.040;2023-03-14T03:26:59;48.50;;;24.50;;
28304;SDS011;15569;42.652;23.040;2023-03-14T03:29:24;53.47;;;24.75;;
28304;SDS011;15569;42.652;23.040;2023-03-14T03:31:50;51.90;;;23.58;;
28304;SDS011;15569;42.652;23.040;2023-03-14T03:34:15;62.50;;;23.98;;
28304;SDS011;15569;42.652;23.040;2023-03-14T03:36:40;52.65;;;25.58;;
28304;SDS011;15569;42.652;23.040;2023-03-14T03:39:06;53.13;;;24.50;;
28304;SDS011;15569;42.652;23.040;2023-03-14T03:41:32;65.32;;;26.27;;
28304;SDS011;15569;42.652;23.040;2023-03-14T03:43:58;44.47;;;22.08;;
28304;SDS011;15569;42.652;23.040;2023-03-14T03:46:24;53.53;;;21.02;;
28304;SDS011;15569;42.652;23.040;2023-03-14T03:48:56;63.53;;;24.90;;
28304;SDS011;15569;42.652;23.040;2023-03-14T03:51:22;49.30;;;20.83;;
28304;SDS011;15569;42.652;23.040;2023-03-14T03:53:48;53.58;;;22.02;;
28304;SDS011;15569;42.652;23.040;2023-03-14T03:56:13;51.67;;;22.75;;
28304;SDS011;15569;42.652;23.040;2023-03-14T03:58:39;60.78;;;22.08;;
28304;SDS011;15569;42.652;23.040;2023-03-14T04:01:07;50.05;;;20.42;;
28304;SDS011;15569;42.652;23.040;2023-03-14T04:08:26;64.35;;;26.17;;
28304;SDS011;15569;42.652;23.040;2023-03-14T04:10:59;59.50;;;22.45;;
28304;SDS011;15569;42.652;23.040;2023-03-14T04:13:26;55.28;;;21.35;;
28304;SDS011;15569;42.652;23.040;2023-03-14T04:15:52;59.90;;;23.55;;
28304;SDS011;15569;42.652;23.040;2023-03-14T04:18:18;61.58;;;29.70;;
28304;SDS011;15569;42.652;23.040;2023-03-14T04:20:44;71.15;;;34.25;;
28304;SDS011;15569;42.652;23.040;2023-03-14T04:23:10;71.65;;;28.60;;
28304;SDS011;15569;42.652;23.040;2023-03-14T04:25:35;62.13;;;24.95;;
28304;SDS011;15569;42.652;23.040;2023-03-14T04:28:00;69.95;;;30.75;;
28304;SDS011;15569;42.652;23.040;2023-03-14T04:30:26;75.28;;;32.40;;
28304;SDS011;15569;42.652;23.040;2023-03-14T04:32:52;63.35;;;28.80;;
28304;SDS011;15569;42.652;23.040;2023-03-14T04:35:17;75.07;;;30.48;;
28304;SDS011;15569;42.652;23.040;2023-03-14T04:37:42;72.80;;;29.40;;
28304;SDS011;15569;42.652;23.040;2023-03-14T04:40:09;69.95;;;28.48;;
28304;SDS011;15569;42.652;23.040;2023-03-14T04:42:35;69.20;;;29.95;;
28304;SDS011;15569;42.652;23.040;2023-03-14T04:45:00;63.47;;;28.45;;
28304;SDS011;15569;42.652;23.040;2023-03-14T04:47:26;71.40;;;30.85;;
28304;SDS011;15569;42.652;23.040;2023-03-14T04:49:51;66.55;;;28.30;;
28304;SDS011;15569;42.652;23.040;2023-03-14T04:52:17;84.13;;;37.22;;
28304;SDS011;15569;42.652;23.040;2023-03-14T04:54:42;86.72;;;34.65;;
28304;SDS011;15569;42.652;23.040;2023-03-14T04:57:08;78.95;;;33.53;;
28304;SDS011;15569;42.652;23.040;2023-03-14T04:59:34;76.22;;;34.03;;
28304;SDS011;15569;42.652;23.040;2023-03-14T05:01:59;77.50;;;35.70;;
28304;SDS011;15569;42.652;23.040;2023-03-14T05:04:24;91.78;;;37.47;;
28304;SDS011;15569;42.652;23.040;2023-03-14T05:06:50;85.88;;;37.33;;
28304;SDS011;15569;42.652;23.040;2023-03-14T05:09:15;98.88;;;37.80;;
28304;SDS011;15569;42.652;23.040;2023-03-14T05:11:40;97.20;;;39.70;;
28304;SDS011;15569;42.652;23.040;2023-03-14T05:14:06;77.13;;;37.10;;
28304;SDS011;15569;42.652;23.040;2023-03-14T05:16:32;89.20;;;38.25;;
28304;SDS011;15569;42.652;23.040;2023-03-14T05:18:57;78.32;;;34.90;;
28304;SDS011;15569;42.652;23.040;2023-03-14T05:21:22;256.55;;;83.13;;
28304;SDS011;15569;42.652;23.040;2023-03-14T05:23:48;99.70;;;38.05;;
28304;SDS011;15569;42.652;23.040;2023-03-14T05:26:13;79.47;;;35.42;;
28304;SDS011;15569;42.652;23.040;2023-03-14T05:28:38;92.55;;;37.85;;
28304;SDS011;15569;42.652;23.040;2023-03-14T05:31:07;95.95;;;36.72;;
28304;SDS011;15569;42.652;23.040;2023-03-14T05:33:33;114.18;;;43.25;;
28304;SDS011;15569;42.652;23.040;2023-03-14T05:35:59;105.03;;;42.30;;
28304;SDS011;15569;42.652;23.040;2023-03-14T05:38:24;107.32;;;39.63;;
28304;SDS011;15569;42.652;23.040;2023-03-14T05:40:50;78.68;;;33.78;;
28304;SDS011;15569;42.652;23.040;2023-03-14T05:43:15;61.33;;;26.23;;
28304;SDS011;15569;42.652;23.040;2023-03-14T05:45:41;67.65;;;28.77;;
28304;SDS011;15569;42.652;23.040;2023-03-14T05:48:07;58.05;;;23.77;;
28304;SDS011;15569;42.652;23.040;2023-03-14T05:50:32;38.88;;;20.27;;
28304;SDS011;15569;42.652;23.040;2023-03-14T05:52:58;43.25;;;19.90;;
28304;SDS011;15569;42.652;23.040;2023-03-14T05:55:23;42.80;;;20.55;;
28304;SDS011;15569;42.652;23.040;2023-03-14T05:57:49;50.88;;;22.27;;
28304;SDS011;15569;42.652;23.040;2023-03-14T06:00:14;60.85;;;35.42;;
28304;SDS011;15569;42.652;23.040;2023-03-14T06:02:40;41.60;;;21.48;;
28304;SDS011;15569;42.652;23.040;2023-03-14T06:05:06;49.10;;;20.20;;
28304;SDS011;15569;42.652;23.040;2023-03-14T06:07:32;47.13;;;21.02;;
28304;SDS011;15569;42.652;23.040;2023-03-14T06:09:58;62.53;;;27.10;;
28304;SDS011;15569;42.652;23.040;2023-03-14T06:12:23;71.90;;;25.88;;
28304;SDS011;15569;42.652;23.040;2023-03-14T06:14:49;57.90;;;22.17;;
28304;SDS011;15569;42.652;23.040;2023-03-14T06:17:15;53.13;;;21.92;;
28304;SDS011;15569;42.652;23.040;2023-03-14T06:19:41;49.28;;;20.52;;
28304;SDS011;15569;42.652;23.040;2023-03-14T06:22:07;44.05;;;21.33;;
28304;SDS011;15569;42.652;23.040;2023-03-14T06:24:32;52.10;;;23.33;;
28304;SDS011;15569;42.652;23.040;2023-03-14T06:26:58;49.53;;;19.38;;
28304;SDS011;15569;42.652;23.040;2023-03-14T06:29:23;51.80;;;19.50;;
28304;SDS011;15569;42.652;23.040;2023-03-14T06:31:48;36.65;;;16.52;;
28304;SDS011;15569;42.652;23.040;2023-03-14T06:34:14;38.42;;;14.73;;
28304;SDS011;15569;42.652;23.040;2023-03-14T06:36:39;27.45;;;11.70;;
28304;SDS011;15569;42.652;23.040;2023-03-14T06:39:05;23.65;;;10.60;;
28304;SDS011;15569;42.652;23.040;2023-03-14T06:41:30;14.98;;;8.90;;
28304;SDS011;15569;42.652;23.040;2023-03-14T06:43:55;15.35;;;8.70;;
28304;SDS011;15569;42.652;23.040;2023-03-14T06:46:21;18.70;;;8.55;;
28304;SDS011;15569;42.652;23.040;2023-03-14T06:48:46;25.67;;;9.07;;
28304;SDS011;15569;42.652;23.040;2023-03-14T06:51:12;20.73;;;10.38;;
28304;SDS011;15569;42.652;23.040;2023-03-14T06:53:37;20.92;;;9.98;;
28304;SDS011;15569;42.652;23.040;2023-03-14T06:56:03;22.60;;;7.75;;
28304;SDS011;15569;42.652;23.040;2023-03-14T06:58:28;19.20;;;8.82;;
28304;SDS011;15569;42.652;23.040;2023-03-14T07:00:54;15.25;;;7.93;;
28304;SDS011;15569;42.652;23.040;2023-03-14T07:03:19;18.52;;;8.13;;
28304;SDS011;15569;42.652;23.040;2023-03-14T07:05:45;22.42;;;7.93;;
28304;SDS011;15569;42.652;23.040;2023-03-14T07:08:10;17.15;;;6.15;;
28304;SDS011;15569;42.652;23.040;2023-03-14T07:10:36;14.20;;;5.75;;
28304;SDS011;15569;42.652;23.040;2023-03-14T07:13:01;21.40;;;7.38;;
28304;SDS011;15569;42.652;23.040;2023-03-14T07:15:27;16.58;;;8.45;;
28304;SDS011;15569;42.652;23.040;2023-03-14T07:17:52;17.17;;;7.68;;
28304;SDS011;15569;42.652;23.040;2023-03-14T07:20:18;18.20;;;7.50;;
28304;SDS011;15569;42.652;23.040;2023-03-14T07:22:43;20.20;;;6.95;;
28304;SDS011;15569;42.652;23.040;2023-03-14T07:25:09;12.68;;;7.13;;
28304;SDS011;15569;42.652;23.040;2023-03-14T07:27:36;19.05;;;7.45;;
28304;SDS011;15569;42.652;23.040;2023-03-14T07:30:02;19.98;;;6.50;;
28304;SDS011;15569;42.652;23.040;2023-03-14T07:32:28;15.63;;;6.88;;
28304;SDS011;15569;42.652;23.040;2023-03-14T07:34:53;19.02;;;9.13;;
28304;SDS011;15569;42.652;23.040;2023-03-14T07:37:19;13.85;;;7.72;;
28304;SDS011;15569;42.652;23.040;2023-03-14T07:39:44;19.02;;;8.27;;
28304;SDS011;15569;42.652;23.040;2023-03-14T07:42:10;17.40;;;8.65;;
28304;SDS011;15569;42.652;23.040;2023-03-14T07:44:36;22.75;;;8.63;;
28304;SDS011;15569;42.652;23.040;2023-03-14T07:47:01;21.88;;;8.65;;
28304;SDS011;15569;42.652;23.040;2023-03-14T07:49:27;23.15;;;10.00;;
28304;SDS011;15569;42.652;23.040;2023-03-14T07:51:52;21.10;;;9.07;;
28304;SDS011;15569;42.652;23.040;2023-03-14T07:54:17;19.40;;;7.28;;
28304;SDS011;15569;42.652;23.040;2023-03-14T07:56:43;17.23;;;7.72;;
28304;SDS011;15569;42.652;23.040;2023-03-14T07:59:08;18.10;;;8.30;;
28304;SDS011;15569;42.652;23.040;2023-03-14T08:01:34;10.32;;;6.28;;
28304;SDS011;15569;42.652;23.040;2023-03-14T08:03:59;16.48;;;6.90;;
28304;SDS011;15569;42.652;23.040;2023-03-14T08:06:25;20.38;;;6.85;;
28304;SDS011;15569;42.652;23.040;2023-03-14T08:08:50;14.88;;;7.47;;
28304;SDS011;15569;42.652;23.040;2023-03-14T08:11:16;17.23;;;7.05;;
28304;SDS011;15569;42.652;23.040;2023-03-14T08:13:41;16.27;;;6.50;;
28304;SDS011;15569;42.652;23.040;2023-03-14T08:16:07;19.35;;;8.07;;
28304;SDS011;15569;42.652;23.040;2023-03-14T08:18:33;19.95;;;8.98;;
28304;SDS011;15569;42.652;23.040;2023-03-14T08:20:58;18.27;;;7.28;;
28304;SDS011;15569;42.652;23.040;2023-03-14T08:23:24;20.77;;;7.72;;
28304;SDS011;15569;42.652;23.040;2023-03-14T08:25:49;16.48;;;7.38;;
28304;SDS011;15569;42.652;23.040;2023-03-14T08:28:16;22.02;;;6.40;;
28304;SDS011;15569;42.652;23.040;2023-03-14T08:30:42;15.05;;;6.88;;
28304;SDS011;15569;42.652;23.040;2023-03-14T08:33:07;16.67;;;6.13;;
28304;SDS011;15569;42.652;23.040;2023-03-14T08:35:32;18.75;;;7.25;;
28304;SDS011;15569;42.652;23.040;2023-03-14T08:37:58;18.02;;;5.95;;
28304;SDS011;15569;42.652;23.040;2023-03-14T08:40:24;10.07;;;5.28;;
28304;SDS011;15569;42.652;23.040;2023-03-14T08:42:49;17.77;;;7.45;;
28304;SDS011;15569;42.652;23.040;2023-03-14T08:45:15;15.07;;;5.95;;
28304;SDS011;15569;42.652;23.040;2023-03-14T08:47:42;10.80;;;5.85;;
28304;SDS011;15569;42.652;23.040;2023-03-14T08:50:08;12.35;;;5.50;;
28304;SDS011;15569;42.652;23.040;2023-03-14T08:52:35;16.15;;;8.07;;
28304;SDS011;15569;42.652;23.040;2023-03-14T08:55:00;10.23;;;5.70;;
28304;SDS011;15569;42.652;23.040;2023-03-14T08:57:26;18.77;;;5.38;;
28304;SDS011;15569;42.652;23.040;2023-03-14T08:59:54;16.02;;;5.20;;
28304;SDS011;15569;42.652;23.040;2023-03-14T09:02:21;11.32;;;4.32;;
28304;SDS011;15569;42.652;23.040;2023-03-14T09:04:46;8.35;;;4.45;;
28304;SDS011;15569;42.652;23.040;2023-03-14T09:07:12;12.23;;;4.65;;
28304;SDS011;15569;42.652;23.040;2023-03-14T09:09:37;7.13;;;4.18;;
28304;SDS011;15569;42.652;23.040;2023-03-14T09:12:03;7.00;;;3.65;;
28304;SDS011;15569;42.652;23.040;2023-03-14T09:14:29;10.27;;;4.45;;
28304;SDS011;15569;42.652;23.040;2023-03-14T09:16:55;9.18;;;3.80;;
28304;SDS011;15569;42.652;23.040;2023-03-14T09:19:20;8.60;;;4.53;;
28304;SDS011;15569;42.652;23.040;2023-03-14T09:21:46;12.10;;;6.68;;
28304;SDS011;15569;42.652;23.040;2023-03-14T09:24:11;14.70;;;6.63;;
28304;SDS011;15569;42.652;23.040;2023-03-14T09:26:37;8.43;;;4.97;;
28304;SDS011;15569;42.652;23.040;2023-03-14T09:29:02;22.83;;;4.47;;
28304;SDS011;15569;42.652;23.040;2023-03-14T09:31:28;11.02;;;5.00;;
28304;SDS011;15569;42.652;23.040;2023-03-14T09:33:54;6.00;;;4.22;;
28304;SDS011;15569;42.652;23.040;2023-03-14T09:36:19;8.85;;;4.03;;
28304;SDS011;15569;42.652;23.040;2023-03-14T09:38:45;11.32;;;4.80;;
28304;SDS011;15569;42.652;23.040;2023-03-14T09:41:17;13.43;;;4.72;;
28304;SDS011;15569;42.652;23.040;2023-03-14T09:43:49;8.10;;;3.70;;
28304;SDS011;15569;42.652;23.040;2023-03-14T09:46:24;9.50;;;4.70;;
28304;SDS011;15569;42.652;23.040;2023-03-14T09:48:49;19.20;;;8.13;;
28304;SDS011;15569;42.652;23.040;2023-03-14T09:51:17;18.52;;;5.43;;
28304;SDS011;15569;42.652;23.040;2023-03-14T09:53:46;14.07;;;6.50;;
28304;SDS011;15569;42.652;23.040;2023-03-14T09:56:33;12.80;;;4.90;;
28304;SDS011;15569;42.652;23.040;2023-03-14T09:59:03;10.43;;;5.45;;
28304;SDS011;15569;42.652;23.040;2023-03-14T10:01:36;16.85;;;7.13;;
28304;SDS011;15569;42.652;23.040;2023-03-14T10:04:02;9.13;;;4.45;;
28304;SDS011;15569;42.652;23.040;2023-03-14T10:08:57;5.68;;;3.92;;
28304;SDS011;15569;42.652;23.040;2023-03-14T10:11:22;6.88;;;4.15;;
28304;SDS011;15569;42.652;23.040;2023-03-14T10:14:02;8.05;;;3.97;;
28304;SDS011;15569;42.652;23.040;2023-03-14T10:16:29;10.23;;;3.72;;
28304;SDS011;15569;42.652;23.040;2023-03-14T10:19:01;11.55;;;4.28;;
28304;SDS011;15569;42.652;23.040;2023-03-14T10:21:52;13.18;;;4.20;;
28304;SDS011;15569;42.652;23.040;2023-03-14T10:24:25;6.32;;;3.58;;
28304;SDS011;15569;42.652;23.040;2023-03-14T10:27:39;5.63;;;3.38;;
28304;SDS011;15569;42.652;23.040;2023-03-14T10:29:57;5.68;;;3.05;;
28304;SDS011;15569;42.652;23.040;2023-03-14T10:32:36;5.78;;;3.03;;
28304;SDS011;15569;42.652;23.040;2023-03-14T10:37:56;6.43;;;3.10;;
28304;SDS011;15569;42.652;23.040;2023-03-14T10:40:26;8.15;;;3.75;;
28304;SDS011;15569;42.652;23.040;2023-03-14T10:42:57;4.57;;;2.80;;
28304;SDS011;15569;42.652;23.040;2023-03-14T10:45:34;4.68;;;3.00;;
28304;SDS011;15569;42.652;23.040;2023-03-14T10:50:53;4.93;;;2.22;;
28304;SDS011;15569;42.652;23.040;2023-03-14T10:53:21;3.53;;;2.33;;
28304;SDS011;15569;42.652;23.040;2023-03-14T10:55:47;8.38;;;2.63;;
28304;SDS011;15569;42.652;23.040;2023-03-14T10:58:24;5.03;;;3.20;;
28304;SDS011;15569;42.652;23.040;2023-03-14T11:01:02;5.38;;;2.83;;
28304;SDS011;15569;42.652;23.040;2023-03-14T11:03:29;3.70;;;2.20;;
28304;SDS011;15569;42.652;23.040;2023-03-14T11:05:59;6.82;;;2.92;;
28304;SDS011;15569;42.652;23.040;2023-03-14T11:11:23;7.97;;;3.28;;
28304;SDS011;15569;42.652;23.040;2023-03-14T11:18:53;3.83;;;2.40;;
28304;SDS011;15569;42.652;23.040;2023-03-14T11:21:41;6.22;;;2.85;;
28304;SDS011;15569;42.652;23.040;2023-03-14T11:29:50;3.85;;;2.58;;
28304;SDS011;15569;42.652;23.040;2023-03-14T11:35:11;7.20;;;3.15;;
28304;SDS011;15569;42.652;23.040;2023-03-14T11:37:56;7.15;;;2.25;;
28304;SDS011;15569;42.652;23.040;2023-03-14T11:40:32;7.40;;;2.33;;
28304;SDS011;15569;42.652;23.040;2023-03-14T11:43:00;5.95;;;2.22;;
28304;SDS011;15569;42.652;23.040;2023-03-14T11:45:38;7.53;;;2.70;;
28304;SDS011;15569;42.652;23.040;2023-03-14T11:51:16;7.75;;;4.30;;
28304;SDS011;15569;42.652;23.040;2023-03-14T11:59:16;3.78;;;2.30;;
28304;SDS011;15569;42.652;23.040;2023-03-14T12:07:17;1.50;;;1.40;;
28304;SDS011;15569;42.652;23.040;2023-03-14T12:09:45;4.27;;;3.07;;
28304;SDS011;15569;42.652;23.040;2023-03-14T12:12:14;2.53;;;1.80;;
28304;SDS011;15569;42.652;23.040;2023-03-14T12:14:45;3.03;;;1.80;;
28304;SDS011;15569;42.652;23.040;2023-03-14T12:17:18;1.60;;;1.40;;
28304;SDS011;15569;42.652;23.040;2023-03-14T12:19:46;2.25;;;1.75;;
28304;SDS011;15569;42.652;23.040;2023-03-14T12:24:51;4.57;;;2.80;;
28304;SDS011;15569;42.652;23.040;2023-03-14T12:28:29;4.15;;;2.08;;
28304;SDS011;15569;42.652;23.040;2023-03-14T12:30:26;2.40;;;1.85;;
28304;SDS011;15569;42.652;23.040;2023-03-14T12:38:32;3.60;;;1.77;;
28304;SDS011;15569;42.652;23.040;2023-03-14T12:43:47;5.15;;;1.77;;
28304;SDS011;15569;42.652;23.040;2023-03-14T12:48:55;4.43;;;1.30;;
28304;SDS011;15569;42.652;23.040;2023-03-14T12:51:34;2.65;;;1.42;;
28304;SDS011;15569;42.652;23.040;2023-03-14T12:59:46;3.47;;;1.40;;
28304;SDS011;15569;42.652;23.040;2023-03-14T13:05:12;3.33;;;1.42;;
28304;SDS011;15569;42.652;23.040;2023-03-14T13:12:57;2.97;;;1.73;;
28304;SDS011;15569;42.652;23.040;2023-03-14T13:15:34;2.72;;;1.67;;
28304;SDS011;15569;42.652;23.040;2023-03-14T13:18:14;5.45;;;2.00;;
28304;SDS011;15569;42.652;23.040;2023-03-14T13:20:44;2.60;;;1.50;;
28304;SDS011;15569;42.652;23.040;2023-03-14T13:23:20;6.22;;;1.77;;
28304;SDS011;15569;42.652;23.040;2023-03-14T13:25:58;2.33;;;1.83;;
28304;SDS011;15569;42.652;23.040;2023-03-14T13:28:25;5.85;;;2.15;;
28304;SDS011;15569;42.652;23.040;2023-03-14T13:30:54;3.65;;;2.53;;
28304;SDS011;15569;42.652;23.040;2023-03-14T13:33:22;3.97;;;2.17;;
28304;SDS011;15569;42.652;23.040;2023-03-14T13:35:53;3.20;;;1.67;;
28304;SDS011;15569;42.652;23.040;2023-03-14T13:38:24;5.47;;;1.58;;
28304;SDS011;15569;42.652;23.040;2023-03-14T13:40:54;5.07;;;1.60;;
28304;SDS011;15569;42.652;23.040;2023-03-14T13:43:28;4.97;;;2.13;;
28304;SDS011;15569;42.652;23.040;2023-03-14T13:48:30;2.95;;;1.92;;
28304;SDS011;15569;42.652;23.040;2023-03-14T13:51:00;4.15;;;2.30;;
28304;SDS011;15569;42.652;23.040;2023-03-14T13:53:29;7.50;;;2.13;;
28304;SDS011;15569;42.652;23.040;2023-03-14T13:55:55;3.20;;;1.90;;
28304;SDS011;15569;42.652;23.040;2023-03-14T13:58:25;8.65;;;2.63;;
28304;SDS011;15569;42.652;23.040;2023-03-14T14:01:02;4.60;;;1.55;;
28304;SDS011;15569;42.652;23.040;2023-03-14T14:03:32;6.70;;;2.58;;
28304;SDS011;15569;42.652;23.040;2023-03-14T14:06:01;5.15;;;2.50;;
28304;SDS011;15569;42.652;23.040;2023-03-14T14:08:27;3.38;;;2.53;;
28304;SDS011;15569;42.652;23.040;2023-03-14T14:10:54;11.82;;;3.33;;
28304;SDS011;15569;42.652;23.040;2023-03-14T14:13:23;6.93;;;4.13;;
28304;SDS011;15569;42.652;23.040;2023-03-14T14:15:51;3.20;;;2.15;;
28304;SDS011;15569;42.652;23.040;2023-03-14T14:18:20;9.63;;;2.88;;
28304;SDS011;15569;42.652;23.040;2023-03-14T14:20:50;8.68;;;3.97;;
28304;SDS011;15569;42.652;23.040;2023-03-14T14:23:19;4.18;;;2.10;;
28304;SDS011;15569;42.652;23.040;2023-03-14T14:25:50;5.90;;;3.20;;
28304;SDS011;15569;42.652;23.040;2023-03-14T14:33:38;4.10;;;2.97;;
28304;SDS011;15569;42.652;23.040;2023-03-14T14:36:24;5.22;;;2.67;;
28304;SDS011;15569;42.652;23.040;2023-03-14T14:41:35;5.10;;;2.85;;
28304;SDS011;15569;42.652;23.040;2023-03-14T14:44:06;10.10;;;5.65;;
28304;SDS011;15569;42.652;23.040;2023-03-14T14:46:33;5.57;;;3.08;;
28304;SDS011;15569;42.652;23.040;2023-03-14T14:49:19;14.17;;;4.53;;
28304;SDS011;15569;42.652;23.040;2023-03-14T14:51:48;9.52;;;5.22;;
28304;SDS011;15569;42.652;23.040;2023-03-14T14:54:16;6.45;;;3.90;;
28304;SDS011;15569;42.652;23.040;2023-03-14T14:56:50;5.38;;;2.47;;
28304;SDS011;15569;42.652;23.040;2023-03-14T14:59:18;13.60;;;8.40;;
28304;SDS011;15569;42.652;23.040;2023-03-14T15:01:46;5.80;;;3.73;;
28304;SDS011;15569;42.652;23.040;2023-03-14T15:04:13;11.93;;;2.67;;
28304;SDS011;15569;42.652;23.040;2023-03-14T15:06:42;6.07;;;3.53;;
28304;SDS011;15569;42.652;23.040;2023-03-14T15:09:10;3.05;;;1.88;;
28304;SDS011;15569;42.652;23.040;2023-03-14T15:11:36;4.38;;;2.50;;
28304;SDS011;15569;42.652;23.040;2023-03-14T15:14:02;3.13;;;2.63;;
28304;SDS011;15569;42.652;23.040;2023-03-14T15:16:29;7.68;;;5.00;;
28304;SDS011;15569;42.652;23.040;2023-03-14T15:18:59;9.70;;;6.55;;
28304;SDS011;15569;42.652;23.040;2023-03-14T15:21:26;11.07;;;6.22;;
28304;SDS011;15569;42.652;23.040;2023-03-14T15:23:53;9.20;;;4.47;;
28304;SDS011;15569;42.652;23.040;2023-03-14T15:26:20;7.32;;;2.45;;
28304;SDS011;15569;42.652;23.040;2023-03-14T15:28:47;3.88;;;2.95;;
28304;SDS011;15569;42.652;23.040;2023-03-14T15:31:13;4.00;;;3.13;;
28304;SDS011;15569;42.652;23.040;2023-03-14T15:33:39;4.35;;;2.40;;
28304;SDS011;15569;42.652;23.040;2023-03-14T15:36:06;7.38;;;3.95;;
28304;SDS011;15569;42.652;23.040;2023-03-14T15:38:41;4.55;;;2.78;;
28304;SDS011;15569;42.652;23.040;2023-03-14T15:41:07;6.38;;;2.75;;
28304;SDS011;15569;42.652;23.040;2023-03-14T15:43:34;4.47;;;3.15;;
28304;SDS011;15569;42.652;23.040;2023-03-14T15:45:59;4.43;;;2.38;;
28304;SDS011;15569;42.652;23.040;2023-03-14T15:48:25;8.85;;;2.78;;
28304;SDS011;15569;42.652;23.040;2023-03-14T15:50:50;7.80;;;4.05;;
28304;SDS011;15569;42.652;23.040;2023-03-14T15:53:15;3.72;;;2.20;;